createdAt,value
2018-03-03T00:00:43.960Z,51.15
2018-03-03T00:03:14.948Z,49.55
2018-03-03T00:05:45.957Z,49.53
2018-03-03T00:08:16.944Z,49.60
2018-03-03T00:10:47.964Z,49.83
2018-03-03T00:13:18.937Z,50.75
2018-03-03T00:15:49.977Z,48.23
2018-03-03T00:18:21.009Z,47.45
2018-03-03T00:20:52.039Z,49.78
2018-03-03T00:23:23.013Z,47.75
2018-03-03T00:25:54.000Z,47.97
2018-03-03T00:28:24.995Z,50.43
2018-03-03T00:30:55.954Z,48.17
2018-03-03T00:33:26.995Z,48.67
2018-03-03T00:35:57.961Z,50.42
2018-03-03T00:38:28.985Z,49.23
2018-03-03T00:40:59.932Z,49.05
2018-03-03T00:43:30.970Z,51.10
2018-03-03T00:46:01.972Z,48.95
2018-03-03T00:48:32.991Z,46.92
2018-03-03T00:51:04.009Z,50.92
2018-03-03T00:53:34.999Z,49.70
2018-03-03T00:56:06.049Z,50.33
2018-03-03T00:58:37.074Z,49.78
2018-03-03T01:01:08.091Z,49.38
2018-03-03T01:03:39.029Z,52.65
2018-03-03T01:06:10.048Z,49.40
2018-03-03T01:08:41.062Z,51.08
2018-03-03T01:11:12.106Z,47.90
2018-03-03T01:13:43.075Z,51.88
2018-03-03T01:16:14.087Z,48.47
2018-03-03T01:18:45.085Z,50.97
2018-03-03T01:21:16.089Z,50.85
2018-03-03T01:23:47.098Z,49.92
2018-03-03T01:26:18.087Z,51.50
2018-03-03T01:28:49.097Z,47.37
2018-03-03T01:31:20.088Z,48.45
2018-03-03T01:33:51.114Z,50.07
2018-03-03T01:36:22.115Z,46.78
2018-03-03T01:38:53.112Z,47.88
2018-03-03T01:41:24.105Z,45.93
2018-03-03T01:43:55.060Z,46.97
2018-03-03T01:46:26.052Z,48.57
2018-03-03T01:48:57.042Z,48.38
2018-03-03T01:51:40.300Z,47.90
2018-03-03T01:54:11.311Z,47.47
2018-03-03T01:56:42.326Z,48.00
2018-03-03T01:59:13.319Z,49.40
2018-03-03T02:01:44.334Z,51.90
2018-03-03T02:04:15.348Z,47.97
2018-03-03T02:06:46.321Z,48.90
2018-03-03T02:09:17.369Z,48.60
2018-03-03T02:11:48.325Z,47.62
2018-03-03T02:14:19.364Z,46.83
2018-03-03T02:16:50.327Z,47.35
2018-03-03T02:19:21.349Z,48.67
2018-03-03T02:21:52.315Z,48.55
2018-03-03T02:24:23.356Z,51.50
2018-03-03T02:26:54.355Z,49.30
2018-03-03T02:29:25.355Z,50.72
2018-03-03T02:31:56.350Z,49.10
2018-03-03T02:34:27.361Z,51.88
2018-03-03T02:36:58.370Z,52.00
2018-03-03T02:39:29.380Z,51.90
2018-03-03T02:42:00.326Z,52.00
2018-03-03T02:44:31.346Z,51.47
2018-03-03T02:47:02.344Z,52.05
2018-03-03T02:49:33.323Z,52.25
2018-03-03T02:52:04.350Z,51.07
2018-03-03T02:54:35.337Z,52.53
2018-03-03T02:57:06.323Z,52.60
2018-03-03T02:59:37.297Z,51.23
2018-03-03T03:02:08.339Z,52.87
2018-03-03T03:04:39.356Z,49.97
2018-03-03T03:07:10.366Z,54.55
2018-03-03T03:09:41.392Z,50.92
2018-03-03T03:12:12.374Z,53.55
2018-03-03T03:14:43.355Z,57.40
2018-03-03T03:17:14.349Z,52.20
2018-03-03T03:19:45.343Z,53.92
2018-03-03T03:22:16.356Z,51.17
2018-03-03T03:24:47.315Z,52.08
2018-03-03T03:27:18.339Z,51.23
2018-03-03T03:29:49.322Z,53.63
2018-03-03T03:32:20.340Z,53.70
2018-03-03T03:34:51.312Z,55.55
2018-03-03T03:37:22.364Z,56.80
2018-03-03T03:39:53.340Z,52.17
2018-03-03T03:42:24.308Z,54.00
2018-03-03T03:44:55.362Z,55.60
2018-03-03T03:47:26.312Z,54.22
2018-03-03T03:49:57.317Z,55.30
2018-03-03T03:52:28.285Z,54.92
2018-03-03T03:54:59.296Z,57.17
2018-03-03T03:57:30.264Z,58.03
2018-03-03T04:00:01.294Z,58.60
2018-03-03T04:02:32.290Z,58.00
2018-03-03T04:05:03.249Z,54.58
2018-03-03T04:07:34.317Z,56.07
2018-03-03T04:10:05.269Z,54.53
2018-03-03T04:12:36.287Z,58.47
2018-03-03T04:15:07.267Z,57.13
2018-03-03T04:17:38.245Z,55.70
2018-03-03T04:20:09.267Z,58.50
2018-03-03T04:22:40.263Z,60.10
2018-03-03T04:25:11.259Z,59.22
2018-03-03T04:27:42.339Z,61.97
2018-03-03T04:30:13.308Z,58.47
2018-03-03T04:32:44.348Z,60.67
2018-03-03T04:35:15.369Z,62.10
2018-03-03T04:37:46.345Z,62.92
2018-03-03T04:40:17.341Z,62.20
2018-03-03T04:42:48.327Z,62.00
2018-03-03T04:45:19.303Z,60.97
2018-03-03T04:47:50.296Z,62.40
2018-03-03T04:50:21.288Z,62.10
2018-03-03T04:52:52.305Z,62.67
2018-03-03T04:55:23.347Z,63.53
2018-03-03T04:57:54.342Z,61.63
2018-03-03T05:00:30.303Z,62.62
2018-03-03T05:06:15.120Z,62.08
2018-03-03T05:08:46.130Z,63.65
2018-03-03T05:11:17.141Z,63.75
2018-03-03T05:17:05.574Z,66.07
2018-03-03T05:19:42.605Z,62.72
2018-03-03T05:22:19.721Z,64.53
2018-03-03T05:24:56.927Z,61.85
2018-03-03T05:27:38.655Z,62.53
2018-03-03T05:33:32.385Z,63.72
2018-03-03T05:36:09.446Z,63.33
2018-03-03T05:41:49.399Z,64.05
2018-03-03T05:47:45.264Z,61.10
2018-03-03T05:50:22.359Z,62.05
2018-03-03T05:52:59.553Z,63.63
2018-03-03T05:55:36.615Z,63.30
2018-03-03T05:58:13.634Z,62.15
2018-03-03T06:00:50.717Z,63.05
2018-03-03T06:03:27.942Z,63.00
2018-03-03T06:06:10.864Z,65.62
2018-03-03T06:11:47.741Z,63.15
2018-03-03T06:14:18.759Z,60.42
2018-03-03T06:16:49.792Z,63.63
2018-03-03T06:19:20.762Z,62.75
2018-03-03T06:21:51.752Z,64.90
2018-03-03T06:24:22.842Z,61.73
2018-03-03T06:26:53.827Z,58.70
2018-03-03T06:29:24.840Z,61.13
2018-03-03T06:31:55.800Z,60.45
2018-03-03T06:34:26.783Z,63.00
2018-03-03T06:36:57.736Z,60.47
2018-03-03T06:39:28.739Z,61.77
2018-03-03T06:41:59.795Z,61.72
2018-03-03T06:44:30.822Z,60.90
2018-03-03T06:47:01.784Z,62.03
2018-03-03T06:49:32.785Z,59.40
2018-03-03T06:52:03.740Z,61.65
2018-03-03T06:54:34.779Z,61.33
2018-03-03T06:57:05.750Z,58.28
2018-03-03T06:59:36.719Z,59.03
2018-03-03T07:02:07.729Z,62.03
2018-03-03T07:04:38.708Z,59.67
2018-03-03T07:07:09.694Z,56.10
2018-03-03T07:09:40.726Z,59.63
2018-03-03T07:12:11.761Z,61.35
2018-03-03T07:14:42.760Z,56.78
2018-03-03T07:17:13.785Z,61.33
2018-03-03T07:19:44.741Z,59.92
2018-03-03T07:22:15.758Z,62.40
2018-03-03T07:24:46.767Z,60.50
2018-03-03T07:27:17.744Z,59.13
2018-03-03T07:29:48.725Z,64.50
2018-03-03T07:32:19.677Z,57.67
2018-03-03T07:34:50.677Z,62.47
2018-03-03T07:37:21.631Z,61.00
2018-03-03T07:39:52.617Z,59.23
2018-03-03T07:42:23.585Z,58.10
2018-03-03T07:44:54.561Z,59.10
2018-03-03T07:47:25.604Z,59.17
2018-03-03T07:49:56.605Z,57.43
2018-03-03T07:52:27.610Z,59.23
2018-03-03T07:54:58.586Z,59.50
2018-03-03T07:57:29.589Z,59.27
2018-03-03T08:00:00.585Z,57.67
2018-03-03T08:02:31.683Z,61.63
2018-03-03T08:05:02.712Z,59.40
2018-03-03T08:07:33.735Z,59.78
2018-03-03T08:10:04.724Z,61.47
2018-03-03T08:12:35.692Z,63.80
2018-03-03T08:15:06.733Z,66.72
2018-03-03T08:17:37.715Z,62.53
2018-03-03T08:20:08.692Z,63.70
2018-03-03T08:22:39.694Z,63.03
2018-03-03T08:25:10.715Z,64.40
2018-03-03T08:27:41.713Z,62.30
2018-03-03T08:30:12.739Z,59.63
2018-03-03T08:32:43.705Z,61.53
2018-03-03T08:35:14.668Z,59.60
2018-03-03T08:37:45.787Z,62.83
2018-03-03T08:40:16.779Z,61.77
2018-03-03T08:42:47.759Z,81.93
2018-03-03T08:45:18.727Z,65.97
2018-03-03T08:47:49.751Z,64.70
2018-03-03T08:50:20.738Z,61.47
2018-03-03T08:52:51.751Z,61.70
2018-03-03T08:55:22.791Z,61.40
2018-03-03T08:57:53.763Z,65.50
2018-03-03T09:00:24.749Z,60.37
2018-03-03T09:02:55.769Z,60.73
2018-03-03T09:05:26.743Z,60.77
2018-03-03T09:07:57.741Z,61.13
2018-03-03T09:10:28.759Z,61.77
2018-03-03T09:12:59.738Z,61.70
2018-03-03T09:15:30.758Z,64.30
2018-03-03T09:18:01.775Z,66.07
2018-03-03T09:20:32.854Z,61.90
2018-03-03T09:23:03.993Z,57.77
2018-03-03T09:25:34.996Z,61.40
2018-03-03T09:28:05.999Z,62.20
2018-03-03T09:30:36.987Z,63.10
2018-03-03T09:33:07.969Z,63.47
2018-03-03T09:35:38.981Z,62.07
2018-03-03T09:38:10.016Z,60.47
2018-03-03T09:40:40.978Z,61.70
2018-03-03T09:43:12.023Z,62.53
2018-03-03T09:45:42.981Z,59.37
2018-03-03T09:48:14.033Z,63.00
2018-03-03T09:50:45.029Z,75.87
2018-03-03T09:53:16.106Z,61.10
2018-03-03T09:55:47.072Z,64.20
2018-03-03T09:58:18.073Z,65.13
2018-03-03T10:00:49.099Z,64.87
2018-03-03T10:03:20.133Z,62.80
2018-03-03T10:05:51.180Z,59.17
2018-03-03T10:08:22.207Z,56.43
2018-03-03T10:10:53.241Z,58.80
2018-03-03T10:13:24.255Z,55.40
2018-03-03T10:15:55.260Z,58.77
2018-03-03T10:18:26.243Z,55.00
2018-03-03T10:20:57.199Z,52.70
2018-03-03T10:23:28.233Z,55.80
2018-03-03T10:25:59.187Z,55.67
2018-03-03T10:28:30.150Z,60.50
2018-03-03T10:31:01.133Z,61.90
2018-03-03T10:33:32.100Z,56.67
2018-03-03T10:36:03.103Z,56.60
2018-03-03T10:38:34.136Z,59.53
2018-03-03T10:41:05.082Z,57.13
2018-03-03T10:43:36.052Z,58.57
2018-03-03T10:46:07.017Z,57.77
2018-03-03T10:48:37.982Z,58.10
2018-03-03T10:51:08.947Z,54.97
2018-03-03T10:53:39.984Z,57.70
2018-03-03T10:56:10.950Z,55.73
2018-03-03T10:58:41.959Z,55.07
2018-03-03T11:01:12.974Z,55.67
2018-03-03T11:03:43.947Z,56.37
2018-03-03T11:06:14.922Z,57.73
2018-03-03T11:08:45.919Z,53.40
2018-03-03T11:11:16.872Z,54.50
2018-03-03T11:13:47.889Z,56.10
2018-03-03T11:16:18.890Z,55.47
2018-03-03T11:18:49.883Z,54.23
2018-03-03T11:21:20.848Z,57.90
2018-03-03T11:23:51.839Z,58.50
2018-03-03T11:26:22.826Z,56.50
2018-03-03T11:28:53.809Z,56.67
2018-03-03T11:31:24.830Z,55.60
2018-03-03T11:33:55.843Z,54.23
2018-03-03T11:36:26.789Z,57.97
2018-03-03T11:38:57.766Z,58.20
2018-03-03T11:41:28.745Z,55.07
2018-03-03T11:43:59.751Z,58.77
2018-03-03T11:46:30.738Z,59.67
2018-03-03T11:49:01.779Z,56.37
2018-03-03T11:51:32.756Z,56.37
2018-03-03T11:54:03.805Z,55.90
2018-03-03T11:56:34.837Z,57.40
2018-03-03T11:59:05.795Z,55.43
2018-03-03T12:01:36.790Z,53.03
2018-03-03T12:04:07.768Z,56.13
2018-03-03T12:06:38.735Z,57.80
2018-03-03T12:09:09.790Z,60.43
2018-03-03T12:11:40.801Z,55.00
2018-03-03T12:14:11.824Z,52.17
2018-03-03T12:16:42.862Z,54.27
2018-03-03T12:19:13.891Z,48.10
2018-03-03T12:21:44.871Z,53.57
2018-03-03T12:24:15.929Z,49.77
2018-03-03T12:26:46.959Z,48.57
2018-03-03T12:29:17.970Z,47.77
2018-03-03T12:31:49.016Z,49.70
2018-03-03T12:34:20.021Z,53.30
2018-03-03T12:36:51.033Z,52.73
2018-03-03T12:39:22.058Z,51.77
2018-03-03T12:41:53.070Z,49.30
2018-03-03T12:44:24.051Z,53.87
2018-03-03T12:46:55.059Z,50.47
2018-03-03T12:49:26.041Z,52.67
2018-03-03T12:51:57.047Z,51.93
2018-03-03T12:54:28.122Z,53.20
2018-03-03T12:56:59.091Z,55.07
2018-03-03T12:59:30.102Z,53.33
2018-03-03T13:02:01.061Z,50.13
2018-03-03T13:04:32.039Z,53.13
2018-03-03T13:07:03.002Z,52.30
2018-03-03T13:09:33.996Z,51.33
2018-03-03T13:12:04.977Z,54.00
2018-03-03T13:14:35.991Z,48.17
2018-03-03T13:17:06.978Z,52.10
2018-03-03T13:19:37.968Z,53.57
2018-03-03T13:22:08.966Z,51.53
2018-03-03T13:24:39.948Z,49.07
2018-03-03T13:27:10.957Z,48.73
2018-03-03T13:29:41.947Z,51.43
2018-03-03T13:32:12.941Z,49.80
2018-03-03T13:34:43.903Z,48.97
2018-03-03T13:37:14.903Z,47.67
2018-03-03T13:39:45.917Z,47.67
2018-03-03T13:42:16.917Z,45.07
2018-03-03T13:44:47.933Z,46.23
2018-03-03T13:47:18.920Z,48.10
2018-03-03T13:49:49.961Z,44.73
2018-03-03T13:52:20.942Z,44.47
2018-03-03T13:54:51.975Z,46.57
2018-03-03T13:57:22.930Z,45.57
2018-03-03T13:59:53.925Z,46.30
2018-03-03T14:02:24.935Z,42.67
2018-03-03T14:04:55.941Z,44.17
2018-03-03T14:07:26.917Z,42.83
2018-03-03T14:09:57.949Z,45.43
2018-03-03T14:12:28.951Z,41.43
2018-03-03T14:14:59.916Z,43.30
2018-03-03T14:17:30.879Z,44.80
2018-03-03T14:20:01.919Z,42.93
2018-03-03T14:22:32.902Z,44.40
2018-03-03T14:25:03.896Z,45.23
2018-03-03T14:27:34.883Z,45.03
2018-03-03T14:30:05.831Z,44.10
2018-03-03T14:32:36.831Z,46.33
2018-03-03T14:35:07.776Z,44.03
2018-03-03T14:37:38.755Z,44.27
2018-03-03T14:40:09.756Z,46.13
2018-03-03T14:42:40.741Z,43.77
2018-03-03T14:45:11.786Z,43.80
2018-03-03T14:47:42.771Z,46.57
2018-03-03T14:50:13.763Z,46.77
2018-03-03T14:52:44.772Z,43.70
2018-03-03T14:55:15.765Z,43.43
2018-03-03T14:57:46.771Z,45.30
2018-03-03T15:00:17.774Z,47.33
2018-03-03T15:02:48.833Z,45.83
2018-03-03T15:05:19.829Z,45.50
2018-03-03T15:07:50.798Z,46.50
2018-03-03T15:10:21.809Z,45.50
2018-03-03T15:12:52.830Z,47.33
2018-03-03T15:15:23.838Z,45.60
2018-03-03T15:17:54.825Z,47.23
2018-03-03T15:20:25.893Z,48.13
2018-03-03T15:22:56.903Z,47.90
2018-03-03T15:25:27.931Z,46.63
2018-03-03T15:27:58.915Z,49.27
2018-03-03T15:30:29.895Z,46.83
2018-03-03T15:33:00.947Z,48.37
2018-03-03T15:35:31.920Z,47.33
2018-03-03T15:38:02.948Z,50.63
2018-03-03T15:40:33.923Z,45.77
2018-03-03T15:43:04.945Z,50.70
2018-03-03T15:45:35.991Z,47.70
2018-03-03T15:48:07.004Z,47.90
2018-03-03T15:50:38.048Z,51.63
2018-03-03T15:53:08.981Z,51.13
2018-03-03T15:55:39.987Z,51.63
2018-03-03T15:58:10.976Z,52.10
2018-03-03T16:00:41.953Z,49.20
2018-03-03T16:03:12.997Z,50.90
2018-03-03T16:05:43.959Z,50.77
2018-03-03T16:08:14.973Z,55.83
2018-03-03T16:10:45.968Z,55.60
2018-03-03T16:13:16.963Z,50.20
2018-03-03T16:15:47.966Z,51.27
2018-03-03T16:18:18.971Z,51.50
2018-03-03T16:20:49.989Z,49.70
2018-03-03T16:23:20.976Z,51.03
2018-03-03T16:25:51.991Z,50.67
2018-03-03T16:28:22.943Z,50.27
2018-03-03T16:30:53.932Z,50.27
2018-03-03T16:33:24.969Z,51.97
2018-03-03T16:35:55.956Z,64.57
2018-03-03T16:38:26.987Z,51.93
2018-03-03T16:40:58.010Z,51.63
2018-03-03T16:43:29.028Z,52.20
2018-03-03T16:46:00.001Z,53.43
2018-03-03T16:48:31.051Z,50.87
2018-03-03T16:51:02.045Z,51.33
2018-03-03T16:53:33.028Z,51.40
2018-03-03T16:56:04.075Z,52.20
2018-03-03T16:58:35.083Z,54.73
2018-03-03T17:01:06.078Z,54.23
2018-03-03T17:03:37.086Z,51.90
2018-03-03T17:06:08.087Z,55.23
2018-03-03T17:08:39.101Z,53.63
2018-03-03T17:11:10.095Z,55.27
2018-03-03T17:13:41.169Z,51.53
2018-03-03T17:16:12.180Z,53.47
2018-03-03T17:18:43.215Z,54.00
2018-03-03T17:21:14.244Z,54.00
2018-03-03T17:23:45.217Z,55.63
2018-03-03T17:26:16.267Z,54.33
2018-03-03T17:28:47.285Z,57.30
2018-03-03T17:31:18.289Z,54.47
2018-03-03T17:33:49.256Z,54.57
2018-03-03T17:36:20.272Z,56.77
2018-03-03T17:38:51.268Z,55.15
2018-03-03T17:41:22.269Z,59.43
2018-03-03T17:43:53.279Z,56.97
2018-03-03T17:46:24.340Z,60.25
2018-03-03T17:48:55.316Z,64.45
2018-03-03T17:51:26.375Z,59.73
2018-03-03T17:53:57.360Z,60.15
2018-03-03T17:56:28.366Z,64.90
2018-03-03T17:58:59.386Z,59.45
2018-03-03T18:01:30.390Z,56.20
2018-03-03T18:04:01.418Z,58.47
2018-03-03T18:06:32.388Z,59.55
2018-03-03T18:09:03.478Z,59.47
2018-03-03T18:11:34.489Z,64.03
2018-03-03T18:14:05.597Z,61.88
2018-03-03T18:16:36.618Z,59.83
2018-03-03T18:19:07.610Z,61.75
2018-03-03T18:21:38.661Z,60.80
2018-03-03T18:24:22.000Z,59.03
2018-03-03T18:26:52.988Z,58.92
2018-03-03T18:29:24.029Z,62.73
2018-03-03T18:31:55.035Z,60.72
2018-03-03T18:34:26.058Z,64.30
2018-03-03T18:36:57.069Z,65.68
2018-03-03T18:39:28.093Z,63.03
2018-03-03T18:41:59.080Z,65.03
2018-03-03T18:44:30.105Z,63.23
2018-03-03T18:47:01.100Z,62.90
2018-03-03T18:49:32.094Z,64.90
2018-03-03T18:52:03.115Z,63.80
2018-03-03T18:54:34.051Z,67.22
2018-03-03T18:57:05.039Z,64.93
2018-03-03T18:59:36.120Z,65.27
2018-03-03T19:02:07.137Z,63.87
2018-03-03T19:04:38.118Z,63.83
2018-03-03T19:07:09.132Z,67.47
2018-03-03T19:09:40.155Z,64.50
2018-03-03T19:12:11.159Z,67.12
2018-03-03T19:14:42.167Z,65.53
2018-03-03T19:17:13.154Z,68.25
2018-03-03T19:19:44.141Z,67.77
2018-03-03T19:22:15.164Z,64.77
2018-03-03T19:24:46.167Z,71.15
2018-03-03T19:27:17.178Z,74.87
2018-03-03T19:29:48.179Z,75.10
2018-03-03T19:32:19.176Z,73.45
2018-03-03T19:34:50.222Z,74.55
2018-03-03T19:37:21.247Z,73.95
2018-03-03T19:39:52.266Z,74.07
2018-03-03T19:42:23.212Z,72.82
2018-03-03T19:44:54.227Z,72.97
2018-03-03T19:47:25.231Z,81.53
2018-03-03T19:49:56.227Z,75.22
2018-03-03T19:52:34.316Z,75.70
2018-03-03T19:55:05.371Z,78.77
2018-03-03T19:57:36.389Z,71.32
2018-03-03T20:00:07.376Z,76.93
2018-03-03T20:02:38.373Z,82.60
2018-03-03T20:05:09.379Z,77.28
2018-03-03T20:07:40.415Z,82.22
2018-03-03T20:10:11.422Z,83.78
2018-03-03T20:12:42.442Z,75.75
2018-03-03T20:15:13.441Z,81.32
2018-03-03T20:17:44.445Z,83.90
2018-03-03T20:20:15.484Z,84.57
2018-03-03T20:22:46.500Z,80.72
2018-03-03T20:25:17.529Z,79.28
2018-03-03T20:27:48.541Z,84.50
2018-03-03T20:30:19.565Z,79.25
2018-03-03T20:32:50.554Z,79.62
2018-03-03T20:35:21.569Z,81.27
2018-03-03T20:37:52.592Z,76.07
2018-03-03T20:40:23.567Z,77.05
2018-03-03T20:42:54.548Z,81.40
2018-03-03T20:45:25.593Z,75.60
2018-03-03T20:47:56.591Z,74.15
2018-03-03T20:50:27.579Z,77.35
2018-03-03T20:52:58.575Z,73.00
2018-03-03T20:55:29.585Z,73.13
2018-03-03T20:58:00.569Z,70.65
2018-03-03T21:00:31.596Z,72.67
2018-03-03T21:03:02.571Z,71.10
2018-03-03T21:05:33.579Z,66.87
2018-03-03T21:08:04.563Z,70.45
2018-03-03T21:10:35.598Z,69.40
2018-03-03T21:13:06.672Z,71.47
2018-03-03T21:15:37.697Z,69.93
2018-03-03T21:18:08.747Z,68.55
2018-03-03T21:20:39.761Z,69.03
2018-03-03T21:23:10.725Z,68.70
2018-03-03T21:25:41.713Z,66.90
2018-03-03T21:28:12.705Z,68.70
2018-03-03T21:30:43.655Z,68.60
2018-03-03T21:33:14.647Z,65.20
2018-03-03T21:35:45.657Z,64.47
2018-03-03T21:38:16.626Z,66.63
2018-03-03T21:40:47.609Z,66.20
2018-03-03T21:43:18.602Z,63.77
2018-03-03T21:45:49.620Z,62.83
2018-03-03T21:48:20.644Z,61.63
2018-03-03T21:50:51.684Z,64.00
2018-03-03T21:53:22.708Z,64.70
2018-03-03T21:55:53.681Z,62.47
2018-03-03T21:58:24.702Z,67.13
2018-03-03T22:00:55.690Z,64.07
2018-03-03T22:03:26.683Z,65.90
2018-03-03T22:05:57.685Z,62.93
2018-03-03T22:08:28.656Z,62.07
2018-03-03T22:10:59.668Z,58.77
2018-03-03T22:13:30.656Z,63.78
2018-03-03T22:16:01.621Z,62.37
2018-03-03T22:18:32.613Z,59.40
2018-03-03T22:21:03.627Z,60.70
2018-03-03T22:23:34.602Z,62.40
2018-03-03T22:26:05.570Z,63.53
2018-03-03T22:28:36.535Z,84.73
2018-03-03T22:31:07.523Z,61.47
2018-03-03T22:33:38.455Z,65.03
2018-03-03T22:36:09.416Z,62.23
2018-03-03T22:38:40.406Z,66.20
2018-03-03T22:41:11.407Z,61.77
2018-03-03T22:43:42.407Z,63.30
2018-03-03T22:46:13.355Z,59.87
2018-03-03T22:48:44.348Z,62.43
2018-03-03T22:51:15.347Z,60.43
2018-03-03T22:53:46.343Z,59.77
2018-03-03T22:56:17.307Z,63.70
2018-03-03T22:58:48.294Z,60.33
2018-03-03T23:01:19.312Z,58.63
2018-03-03T23:03:50.294Z,61.00
2018-03-03T23:06:21.285Z,58.10
2018-03-03T23:08:52.288Z,55.30
2018-03-03T23:11:23.314Z,55.90
2018-03-03T23:13:54.302Z,57.57
2018-03-03T23:16:25.312Z,55.23
2018-03-03T23:19:03.190Z,56.10
2018-03-03T23:21:34.189Z,55.85
2018-03-03T23:24:05.196Z,57.40
2018-03-03T23:26:36.143Z,57.47
2018-03-03T23:29:07.152Z,53.30
2018-03-03T23:31:38.127Z,53.80
2018-03-03T23:34:09.177Z,50.27
2018-03-03T23:36:40.187Z,50.83
2018-03-03T23:39:11.189Z,49.85
2018-03-03T23:41:42.214Z,48.70
2018-03-03T23:44:13.222Z,48.15
2018-03-03T23:46:44.206Z,50.45
2018-03-03T23:49:15.156Z,51.93
2018-03-03T23:51:46.170Z,50.33
2018-03-03T23:54:17.192Z,50.80
2018-03-03T23:56:48.155Z,51.77
2018-03-03T23:59:19.201Z,50.47
